createdAt,value
2018-07-15T00:01:14.154Z,18.70
2018-07-15T00:03:42.354Z,18.70
2018-07-15T00:06:10.542Z,18.60
2018-07-15T00:08:39.011Z,18.70
2018-07-15T00:11:08.166Z,18.70
2018-07-15T00:13:36.828Z,18.70
2018-07-15T00:16:05.015Z,18.80
2018-07-15T00:18:33.998Z,18.70
2018-07-15T00:21:02.346Z,18.80
2018-07-15T00:23:30.963Z,18.80
2018-07-15T00:25:59.142Z,18.80
2018-07-15T00:28:28.505Z,18.70
2018-07-15T00:30:56.702Z,18.60
2018-07-15T00:33:25.059Z,18.60
2018-07-15T00:35:53.254Z,18.70
2018-07-15T00:38:21.634Z,18.70
2018-07-15T00:40:50.325Z,18.70
2018-07-15T00:43:19.734Z,18.60
2018-07-15T00:45:47.939Z,18.60
2018-07-15T00:48:16.772Z,18.60
2018-07-15T00:50:44.977Z,18.60
2018-07-15T00:53:13.611Z,18.70
2018-07-15T00:55:41.827Z,18.70
2018-07-15T00:58:10.531Z,18.60
2018-07-15T01:00:43.986Z,18.50
2018-07-15T01:03:12.194Z,18.50
2018-07-15T01:05:40.410Z,18.50
2018-07-15T01:08:09.021Z,18.40
2018-07-15T01:10:37.750Z,18.40
2018-07-15T01:13:06.804Z,18.40
2018-07-15T01:15:35.024Z,18.40
2018-07-15T01:18:03.253Z,18.40
2018-07-15T01:20:31.468Z,18.40
2018-07-15T01:23:00.152Z,18.40
2018-07-15T01:25:28.454Z,18.40
2018-07-15T01:27:57.198Z,18.20
2018-07-15T01:30:25.411Z,18.00
2018-07-15T01:32:54.081Z,18.00
2018-07-15T01:35:22.937Z,17.90
2018-07-15T01:37:51.163Z,17.90
2018-07-15T01:40:19.387Z,17.90
2018-07-15T01:42:47.866Z,17.90
2018-07-15T01:45:16.560Z,17.90
2018-07-15T01:47:44.806Z,17.90
2018-07-15T01:50:13.022Z,18.00
2018-07-15T01:52:41.584Z,18.00
2018-07-15T01:55:09.786Z,18.00
2018-07-15T01:57:38.398Z,18.10
2018-07-15T02:00:07.021Z,18.10
2018-07-15T02:02:35.226Z,17.70
2018-07-15T02:05:03.655Z,17.60
2018-07-15T02:07:32.270Z,17.70
2018-07-15T02:10:00.526Z,17.70
2018-07-15T02:12:29.503Z,17.80
2018-07-15T02:14:57.713Z,17.80
2018-07-15T02:17:26.606Z,17.80
2018-07-15T02:19:54.803Z,17.70
2018-07-15T02:22:23.086Z,17.70
2018-07-15T02:24:51.291Z,17.60
2018-07-15T02:27:20.060Z,17.50
2018-07-15T02:29:48.262Z,17.50
2018-07-15T02:32:17.167Z,17.40
2018-07-15T02:34:45.371Z,17.20
2018-07-15T02:37:13.577Z,17.10
2018-07-15T02:39:41.783Z,17.30
2018-07-15T02:42:09.994Z,17.40
2018-07-15T02:44:38.699Z,17.30
2018-07-15T02:47:06.915Z,17.30
2018-07-15T02:49:35.122Z,17.20
2018-07-15T02:52:03.886Z,17.20
2018-07-15T02:54:32.094Z,17.20
2018-07-15T02:57:00.579Z,17.10
2018-07-15T02:59:28.795Z,17.20
2018-07-15T03:01:57.007Z,17.20
2018-07-15T03:04:25.220Z,17.30
2018-07-15T03:06:53.418Z,17.20
2018-07-15T03:09:22.109Z,17.20
2018-07-15T03:11:50.923Z,17.20
2018-07-15T03:14:19.759Z,17.20
2018-07-15T03:16:47.965Z,17.10
2018-07-15T03:19:16.161Z,17.10
2018-07-15T03:21:45.005Z,17.10
2018-07-15T03:24:13.207Z,17.10
2018-07-15T03:26:41.941Z,17.00
2018-07-15T03:29:10.163Z,17.10
2018-07-15T03:31:45.000Z,17.10
2018-07-15T03:34:13.278Z,17.00
2018-07-15T03:36:41.419Z,17.00
2018-07-15T03:39:10.223Z,17.00
2018-07-15T03:41:38.419Z,17.00
2018-07-15T03:44:07.427Z,16.90
2018-07-15T03:46:35.750Z,17.00
2018-07-15T03:49:04.751Z,17.10
2018-07-15T03:51:32.951Z,16.90
2018-07-15T03:54:01.379Z,16.90
2018-07-15T03:56:30.124Z,16.90
2018-07-15T03:58:58.779Z,16.90
2018-07-15T04:01:26.996Z,16.80
2018-07-15T04:03:55.227Z,16.90
2018-07-15T04:06:23.836Z,16.90
2018-07-15T04:08:52.432Z,16.90
2018-07-15T04:11:21.098Z,17.10
2018-07-15T04:13:50.236Z,17.20
2018-07-15T04:16:18.430Z,17.20
2018-07-15T04:18:46.632Z,17.20
2018-07-15T04:21:15.224Z,17.20
2018-07-15T04:23:43.402Z,17.20
2018-07-15T04:26:15.550Z,17.30
2018-07-15T04:28:43.743Z,17.30
2018-07-15T04:31:11.953Z,17.30
2018-07-15T04:33:40.623Z,17.30
2018-07-15T04:36:08.817Z,17.30
2018-07-15T04:38:37.019Z,17.40
2018-07-15T04:41:05.246Z,17.30
2018-07-15T04:43:33.891Z,17.40
2018-07-15T04:46:02.100Z,17.60
2018-07-15T04:48:30.738Z,17.70
2018-07-15T04:50:58.934Z,17.80
2018-07-15T04:53:27.479Z,17.90
2018-07-15T04:56:02.291Z,18.10
2018-07-15T04:58:30.731Z,18.10
2018-07-15T05:01:01.071Z,18.20
2018-07-15T05:03:29.731Z,18.30
2018-07-15T05:05:57.938Z,18.30
2018-07-15T05:08:26.810Z,18.20
2018-07-15T05:10:55.010Z,18.10
2018-07-15T05:13:23.771Z,18.10
2018-07-15T05:15:51.985Z,18.20
2018-07-15T05:18:20.199Z,18.20
2018-07-15T05:20:48.399Z,18.30
2018-07-15T05:23:16.582Z,18.30
2018-07-15T05:25:44.863Z,18.40
2018-07-15T05:28:13.211Z,18.50
2018-07-15T05:30:41.387Z,18.70
2018-07-15T05:33:10.195Z,18.70
2018-07-15T05:35:38.386Z,18.90
2018-07-15T05:38:06.570Z,19.00
2018-07-15T05:40:34.939Z,19.10
2018-07-15T05:43:05.730Z,19.30
2018-07-15T05:45:33.916Z,19.50
2018-07-15T05:48:02.771Z,19.40
2018-07-15T05:50:30.992Z,19.50
2018-07-15T05:52:59.651Z,19.70
2018-07-15T05:55:27.862Z,19.90
2018-07-15T05:57:56.429Z,19.80
2018-07-15T06:00:25.004Z,20.00
2018-07-15T06:02:53.238Z,20.10
2018-07-15T06:05:21.447Z,20.30
2018-07-15T06:07:49.655Z,20.40
2018-07-15T06:10:18.287Z,20.30
2018-07-15T06:12:46.792Z,20.60
2018-07-15T06:15:14.978Z,20.80
2018-07-15T06:17:43.183Z,21.00
2018-07-15T06:20:11.400Z,21.00
2018-07-15T06:22:39.664Z,21.10
2018-07-15T06:25:07.880Z,21.20
2018-07-15T06:27:36.960Z,21.40
2018-07-15T06:30:05.183Z,21.60
2018-07-15T06:32:33.879Z,21.60
2018-07-15T06:35:02.404Z,21.90
2018-07-15T06:37:37.544Z,22.20
2018-07-15T06:40:06.270Z,22.40
2018-07-15T06:42:34.479Z,22.80
2018-07-15T06:45:03.126Z,23.00
2018-07-15T06:47:31.304Z,23.50
2018-07-15T06:49:59.501Z,23.90
2018-07-15T06:52:28.263Z,24.30
2018-07-15T06:54:56.458Z,24.70
2018-07-15T06:57:25.087Z,25.00
2018-07-15T06:59:53.342Z,25.40
2018-07-15T07:02:21.555Z,26.00
2018-07-15T07:04:50.578Z,26.40
2018-07-15T07:07:18.793Z,26.80
2018-07-15T07:09:47.522Z,27.10
2018-07-15T07:12:16.107Z,27.30
2018-07-15T07:14:44.291Z,27.30
2018-07-15T07:17:12.487Z,28.10
2018-07-15T07:19:40.697Z,28.40
2018-07-15T07:22:08.900Z,28.80
2018-07-15T07:24:37.168Z,28.80
2018-07-15T07:27:05.534Z,28.00
2018-07-15T07:29:34.056Z,28.10
2018-07-15T07:32:02.894Z,29.00
2018-07-15T07:34:31.111Z,30.10
2018-07-15T07:36:59.767Z,31.00
2018-07-15T07:39:27.956Z,31.30
2018-07-15T07:41:56.158Z,30.90
2018-07-15T07:44:24.707Z,30.80
2018-07-15T07:46:52.944Z,31.20
2018-07-15T07:49:21.382Z,30.50
2018-07-15T07:51:52.258Z,30.70
2018-07-15T07:54:20.490Z,29.80
2018-07-15T07:56:49.159Z,31.20
2018-07-15T07:59:17.358Z,31.90
2018-07-15T08:01:45.556Z,32.30
2018-07-15T08:04:13.756Z,32.90
2018-07-15T08:06:41.971Z,33.00
2018-07-15T08:09:10.838Z,33.10
2018-07-15T08:11:39.027Z,33.00
2018-07-15T08:14:07.603Z,33.30
2018-07-15T08:16:36.019Z,32.70
2018-07-15T08:19:04.221Z,33.40
2018-07-15T08:21:32.407Z,34.20
2018-07-15T08:24:00.992Z,35.00
2018-07-15T08:26:29.798Z,35.60
2018-07-15T08:28:58.475Z,35.50
2018-07-15T08:31:26.669Z,35.40
2018-07-15T08:33:55.250Z,35.00
2018-07-15T08:36:23.468Z,35.90
2018-07-15T08:38:51.906Z,35.70
2018-07-15T08:41:20.093Z,36.90
2018-07-15T08:43:48.499Z,36.40
2018-07-15T08:46:16.699Z,36.40
2018-07-15T08:48:44.890Z,36.80
2018-07-15T08:51:16.828Z,37.80
2018-07-15T08:53:45.598Z,37.40
2018-07-15T08:56:14.358Z,37.60
2018-07-15T08:58:42.538Z,37.20
2018-07-15T09:01:10.737Z,37.60
2018-07-15T09:03:38.935Z,37.00
2018-07-15T09:06:07.150Z,37.60
2018-07-15T09:08:35.551Z,39.10
2018-07-15T09:11:04.157Z,38.50
2018-07-15T09:13:32.603Z,38.80
2018-07-15T09:16:01.407Z,38.50
2018-07-15T09:18:29.623Z,38.40
2018-07-15T09:20:57.814Z,39.30
2018-07-15T09:23:26.031Z,39.50
2018-07-15T09:25:54.922Z,40.10
2018-07-15T09:28:23.484Z,40.70
2018-07-15T09:30:52.313Z,40.20
2018-07-15T09:33:21.941Z,39.60
2018-07-15T09:35:50.161Z,39.20
2018-07-15T09:38:18.343Z,39.70
2018-07-15T09:40:46.555Z,38.90
2018-07-15T09:43:15.397Z,40.70
2018-07-15T09:45:43.606Z,40.50
2018-07-15T09:48:11.810Z,40.90
2018-07-15T09:50:40.063Z,40.80
2018-07-15T09:53:08.436Z,40.50
2018-07-15T09:55:36.631Z,40.10
2018-07-15T09:58:05.364Z,39.80
2018-07-15T10:00:40.132Z,39.60
2018-07-15T10:03:08.714Z,40.70
2018-07-15T10:05:36.904Z,41.70
2018-07-15T10:08:05.111Z,41.40
2018-07-15T10:10:33.774Z,42.30
2018-07-15T10:13:02.217Z,41.00
2018-07-15T10:15:30.415Z,41.30
2018-07-15T10:17:58.643Z,40.00
2018-07-15T10:20:27.385Z,41.60
2018-07-15T10:22:55.644Z,42.20
2018-07-15T10:25:23.839Z,41.10
2018-07-15T10:27:52.461Z,39.70
2018-07-15T10:30:20.669Z,40.40
2018-07-15T10:32:49.407Z,41.30
2018-07-15T10:35:17.603Z,41.10
2018-07-15T10:37:45.818Z,39.60
2018-07-15T10:40:14.057Z,39.30
2018-07-15T10:42:42.263Z,38.50
2018-07-15T10:45:10.758Z,37.90
2018-07-15T10:47:39.482Z,38.70
2018-07-15T10:50:08.409Z,39.00
2018-07-15T10:52:36.906Z,40.10
2018-07-15T10:55:05.471Z,39.60
2018-07-15T10:57:33.954Z,38.90
2018-07-15T11:00:02.625Z,39.10
2018-07-15T11:02:30.839Z,39.00
2018-07-15T11:04:59.045Z,39.00
2018-07-15T11:07:27.415Z,38.60
2018-07-15T11:10:01.951Z,37.80
2018-07-15T11:12:30.458Z,35.90
2018-07-15T11:14:58.944Z,34.90
2018-07-15T11:17:27.167Z,33.80
2018-07-15T11:19:55.394Z,33.40
2018-07-15T11:22:23.688Z,33.70
2018-07-15T11:24:51.871Z,33.90
2018-07-15T11:27:20.606Z,33.40
2018-07-15T11:29:48.830Z,32.40
2018-07-15T11:32:17.347Z,31.90
2018-07-15T11:34:45.545Z,31.30
2018-07-15T11:37:14.144Z,31.00
2018-07-15T11:39:42.340Z,30.30
2018-07-15T11:42:10.548Z,29.40
2018-07-15T11:44:39.244Z,28.70
2018-07-15T11:47:08.152Z,28.30
2018-07-15T11:49:36.362Z,28.00
2018-07-15T11:52:04.935Z,27.40
2018-07-15T11:54:36.222Z,27.00
2018-07-15T11:57:04.702Z,26.60
2018-07-15T11:59:32.915Z,26.30
2018-07-15T12:02:01.210Z,26.20
2018-07-15T12:04:29.394Z,25.90
2018-07-15T12:06:57.609Z,25.40
2018-07-15T12:09:26.948Z,25.00
2018-07-15T12:11:55.699Z,24.80
2018-07-15T12:14:23.936Z,24.50
2018-07-15T12:16:52.159Z,24.30
2018-07-15T12:19:20.466Z,24.00
2018-07-15T12:21:48.695Z,23.80
2018-07-15T12:24:17.282Z,23.70
2018-07-15T12:26:45.521Z,23.60
2018-07-15T12:29:13.718Z,23.40
2018-07-15T12:31:46.786Z,23.30
2018-07-15T12:34:16.854Z,23.10
2018-07-15T12:36:45.089Z,22.90
2018-07-15T12:39:13.288Z,22.60
2018-07-15T12:41:41.551Z,22.30
2018-07-15T12:44:10.155Z,22.10
2018-07-15T12:46:38.350Z,21.90
2018-07-15T12:49:07.135Z,21.70
2018-07-15T12:51:35.370Z,21.40
2018-07-15T12:54:03.853Z,21.20
2018-07-15T12:56:32.358Z,21.00
2018-07-15T13:01:38.328Z,20.80
2018-07-15T13:04:06.518Z,20.60
2018-07-15T13:06:34.710Z,20.60
2018-07-15T13:09:12.008Z,20.70
2018-07-15T13:11:40.209Z,20.80
2018-07-15T13:14:09.198Z,20.90
2018-07-15T13:16:37.417Z,21.10
2018-07-15T13:19:05.667Z,21.20
2018-07-15T13:21:34.048Z,21.20
2018-07-15T13:24:02.255Z,21.20
2018-07-15T13:26:30.540Z,21.40
2018-07-15T13:28:58.781Z,21.60
2018-07-15T13:31:27.160Z,21.60
2018-07-15T13:33:55.562Z,21.80
2018-07-15T13:36:23.754Z,22.10
2018-07-15T13:38:51.946Z,22.20
2018-07-15T13:41:20.135Z,22.40
2018-07-15T13:43:48.616Z,22.70
2018-07-15T13:46:17.205Z,23.00
2018-07-15T13:48:45.666Z,23.40
2018-07-15T13:51:13.884Z,23.50
2018-07-15T13:53:42.417Z,23.70
2018-07-15T13:56:11.346Z,23.80
2018-07-15T13:58:46.275Z,24.10
2018-07-15T14:01:14.917Z,24.10
2018-07-15T14:03:43.135Z,24.10
2018-07-15T14:06:11.341Z,23.80
2018-07-15T14:08:39.892Z,23.50
2018-07-15T14:11:08.090Z,23.50
2018-07-15T14:13:36.824Z,23.70
2018-07-15T14:16:05.088Z,23.80
2018-07-15T14:23:29.003Z,23.80
2018-07-15T14:25:57.378Z,23.90
2018-07-15T14:30:53.611Z,24.00
2018-07-15T14:33:24.342Z,24.10
2018-07-15T14:35:52.579Z,23.90
2018-07-15T14:38:21.179Z,23.70
2018-07-15T14:40:49.380Z,23.50
2018-07-15T14:43:18.008Z,23.60
2018-07-15T14:45:46.923Z,23.80
2018-07-15T14:50:43.914Z,24.00
2018-07-15T14:53:12.348Z,24.00
2018-07-15T14:55:40.726Z,24.10
2018-07-15T14:58:11.853Z,24.20
2018-07-15T15:00:46.606Z,24.10
2018-07-15T15:03:14.810Z,24.20
2018-07-15T15:05:43.190Z,24.20
2018-07-15T15:08:11.373Z,24.10
2018-07-15T15:10:40.043Z,24.00
2018-07-15T15:13:08.846Z,24.10
2018-07-15T15:15:37.334Z,24.10
2018-07-15T15:18:05.543Z,24.20
2018-07-15T15:20:33.736Z,24.20
2018-07-15T15:23:01.967Z,24.20
2018-07-15T15:25:30.161Z,24.10
2018-07-15T15:27:59.470Z,24.00
2018-07-15T15:30:27.680Z,24.00
2018-07-15T15:32:56.352Z,23.90
2018-07-15T15:35:24.555Z,23.90
2018-07-15T15:37:53.148Z,24.00
2018-07-15T15:40:21.349Z,23.80
2018-07-15T15:42:49.535Z,23.90
2018-07-15T15:45:18.004Z,23.90
2018-07-15T15:50:20.781Z,24.00
2018-07-15T15:52:49.466Z,23.80
2018-07-15T15:55:17.674Z,23.70
2018-07-15T15:57:45.891Z,23.90
2018-07-15T16:00:14.610Z,23.80
2018-07-15T16:02:42.799Z,23.70
2018-07-15T16:05:11.005Z,23.80
2018-07-15T16:07:39.219Z,23.70
2018-07-15T16:10:07.574Z,23.70
2018-07-15T16:12:36.167Z,23.60
2018-07-15T16:15:04.559Z,23.60
2018-07-15T16:17:33.150Z,23.60
2018-07-15T16:20:01.383Z,23.40
2018-07-15T16:22:30.126Z,23.40
2018-07-15T16:24:58.534Z,23.40
2018-07-15T16:27:26.739Z,23.40
2018-07-15T16:29:54.939Z,23.50
2018-07-15T16:32:23.588Z,23.60
2018-07-15T16:34:52.320Z,23.60
2018-07-15T16:37:20.518Z,23.70
2018-07-15T16:39:48.727Z,23.80
2018-07-15T16:42:16.935Z,23.80
2018-07-15T16:44:45.499Z,23.90
2018-07-15T16:47:13.849Z,23.90
2018-07-15T16:49:42.497Z,23.80
2018-07-15T16:52:11.095Z,23.80
2018-07-15T16:54:39.300Z,23.90
2018-07-15T16:57:07.794Z,23.70
2018-07-15T16:59:36.001Z,23.60
2018-07-15T17:02:04.237Z,23.60
2018-07-15T17:04:32.713Z,23.50
2018-07-15T17:07:01.327Z,23.50
2018-07-15T17:09:30.151Z,23.30
2018-07-15T17:11:58.885Z,23.20
2018-07-15T17:14:27.094Z,23.20
2018-07-15T17:16:55.859Z,23.00
2018-07-15T17:19:24.072Z,23.00
2018-07-15T17:21:52.747Z,22.90
2018-07-15T17:24:20.936Z,22.90
2018-07-15T17:26:49.140Z,22.70
2018-07-15T17:29:17.374Z,22.60
2018-07-15T17:31:47.138Z,22.70
2018-07-15T17:34:15.926Z,22.70
2018-07-15T17:36:44.139Z,22.60
2018-07-15T17:39:12.593Z,22.60
2018-07-15T17:41:40.815Z,22.60
2018-07-15T17:44:09.315Z,22.60
2018-07-15T17:46:37.631Z,22.60
2018-07-15T17:49:06.334Z,22.60
2018-07-15T17:51:34.651Z,22.60
2018-07-15T17:54:03.459Z,22.40
2018-07-15T17:56:31.707Z,22.40
2018-07-15T17:58:59.854Z,22.30
2018-07-15T18:01:28.227Z,22.30
2018-07-15T18:03:56.803Z,22.30
2018-07-15T18:06:25.018Z,22.20
2018-07-15T18:08:53.577Z,22.20
2018-07-15T18:11:21.863Z,22.10
2018-07-15T18:13:53.510Z,22.00
2018-07-15T18:16:21.802Z,22.00
2018-07-15T18:18:50.087Z,21.90
2018-07-15T18:21:18.499Z,21.80
2018-07-15T18:23:46.732Z,21.80
2018-07-15T18:26:15.065Z,21.80
2018-07-15T18:28:43.610Z,21.80
2018-07-15T18:31:11.820Z,21.80
2018-07-15T18:33:40.477Z,21.70
2018-07-15T18:36:08.996Z,21.60
2018-07-15T18:38:37.174Z,21.50
2018-07-15T18:41:05.490Z,21.50
2018-07-15T18:43:34.342Z,21.40
2018-07-15T18:46:02.868Z,21.40
2018-07-15T18:48:31.074Z,21.40
2018-07-15T18:50:59.533Z,21.40
2018-07-15T18:53:27.894Z,21.30
2018-07-15T18:55:56.111Z,21.30
2018-07-15T18:58:24.923Z,21.20
2018-07-15T19:00:53.103Z,21.10
2018-07-15T19:03:21.306Z,21.10
2018-07-15T19:05:49.861Z,21.00
2018-07-15T19:08:18.055Z,21.00
2018-07-15T19:10:50.301Z,21.00
2018-07-15T19:13:18.830Z,20.90
2018-07-15T19:15:47.028Z,20.90
2018-07-15T19:18:16.620Z,20.90
2018-07-15T19:20:45.276Z,20.90
2018-07-15T19:23:13.510Z,20.90
2018-07-15T19:25:41.752Z,20.90
2018-07-15T19:28:10.197Z,20.80
2018-07-15T19:30:38.430Z,20.80
2018-07-15T19:33:07.264Z,20.80
2018-07-15T19:35:35.456Z,20.70
2018-07-15T19:38:04.532Z,20.70
2018-07-15T19:40:32.761Z,20.70
2018-07-15T19:43:00.964Z,20.60
2018-07-15T19:45:29.715Z,20.50
2018-07-15T19:47:58.493Z,20.50
2018-07-15T19:50:26.717Z,20.50
2018-07-15T19:52:55.080Z,20.50
2018-07-15T19:55:23.276Z,20.50
2018-07-15T19:57:51.764Z,20.50
2018-07-15T20:00:20.318Z,20.50
2018-07-15T20:02:48.719Z,20.40
2018-07-15T20:05:17.344Z,20.40
2018-07-15T20:07:45.710Z,20.30
2018-07-15T20:10:13.898Z,20.20
2018-07-15T20:12:42.582Z,20.20
2018-07-15T20:15:10.838Z,20.20
2018-07-15T20:17:39.047Z,20.20
2018-07-15T20:20:09.342Z,20.20
2018-07-15T20:22:37.550Z,20.00
2018-07-15T20:25:09.178Z,19.90
2018-07-15T20:27:37.388Z,19.90
2018-07-15T20:30:06.250Z,19.90
2018-07-15T20:32:34.851Z,20.00
2018-07-15T20:35:03.291Z,19.90
2018-07-15T20:37:31.550Z,20.00
2018-07-15T20:39:59.788Z,19.80
2018-07-15T20:42:27.994Z,19.90
2018-07-15T20:44:56.529Z,19.80
2018-07-15T20:47:24.740Z,19.80
2018-07-15T20:49:53.312Z,19.50
2018-07-15T20:52:21.871Z,19.50
2018-07-15T20:54:50.065Z,19.40
2018-07-15T20:57:18.513Z,19.40
2018-07-15T20:59:47.098Z,19.50
2018-07-15T21:02:15.606Z,19.40
2018-07-15T21:04:43.797Z,19.40
2018-07-15T21:07:11.998Z,19.40
2018-07-15T21:09:40.227Z,19.30
2018-07-15T21:12:08.963Z,19.40
2018-07-15T21:14:37.547Z,19.30
2018-07-15T21:17:05.857Z,19.20
2018-07-15T21:19:34.489Z,19.10
2018-07-15T21:22:03.163Z,19.10
2018-07-15T21:24:31.372Z,19.00
2018-07-15T21:26:59.566Z,19.00
2018-07-15T21:29:28.182Z,19.10
2018-07-15T21:31:56.849Z,18.90
2018-07-15T21:34:25.024Z,18.90
2018-07-15T21:36:53.226Z,18.80
2018-07-15T21:39:21.449Z,18.80
2018-07-15T21:41:49.683Z,18.80
2018-07-15T21:44:23.882Z,18.60
2018-07-15T21:46:52.059Z,18.70
2018-07-15T21:49:32.923Z,18.60
2018-07-15T21:52:01.564Z,18.60
2018-07-15T21:54:29.796Z,18.50
2018-07-15T21:56:58.123Z,18.30
2018-07-15T21:59:26.819Z,18.30
2018-07-15T22:01:55.017Z,18.30
2018-07-15T22:04:23.678Z,18.20
2018-07-15T22:07:06.726Z,18.10
2018-07-15T22:09:56.854Z,18.20
2018-07-15T22:12:25.726Z,18.10
2018-07-15T22:14:53.906Z,18.00
2018-07-15T22:17:22.139Z,18.00
2018-07-15T22:19:50.735Z,18.10
2018-07-15T22:22:18.963Z,18.20
2018-07-15T22:24:47.152Z,18.20
2018-07-15T22:27:15.359Z,18.20
2018-07-15T22:29:43.551Z,18.30
2018-07-15T22:32:12.228Z,18.20
2018-07-15T22:34:40.631Z,18.00
2018-07-15T22:37:08.868Z,17.90
2018-07-15T22:39:37.070Z,17.90
2018-07-15T22:42:05.280Z,18.00
2018-07-15T22:44:34.003Z,18.10
2018-07-15T22:47:02.207Z,18.10
2018-07-15T22:49:30.845Z,18.00
2018-07-15T22:51:59.343Z,17.90
2018-07-15T22:54:27.530Z,17.90
2018-07-15T22:56:56.383Z,17.80
2018-07-15T22:59:28.782Z,17.90
2018-07-15T23:01:56.973Z,17.90
2018-07-15T23:04:36.528Z,18.00
2018-07-15T23:07:04.748Z,17.90
2018-07-15T23:09:33.747Z,17.90
2018-07-15T23:12:02.375Z,17.70
2018-07-15T23:14:30.575Z,17.90
2018-07-15T23:16:58.799Z,18.00
2018-07-15T23:19:27.023Z,18.00
2018-07-15T23:24:22.464Z,17.90
2018-07-15T23:26:50.679Z,17.80
2018-07-15T23:29:18.870Z,17.80
2018-07-15T23:31:47.324Z,17.80
2018-07-15T23:34:15.511Z,17.80
2018-07-15T23:36:43.711Z,17.80
2018-07-15T23:39:11.918Z,17.80
2018-07-15T23:41:40.135Z,17.80
2018-07-15T23:44:08.546Z,17.90
2018-07-15T23:46:37.175Z,17.70
2018-07-15T23:49:13.705Z,17.60
2018-07-15T23:51:42.111Z,17.60
2018-07-15T23:54:10.722Z,17.50
2018-07-15T23:59:07.430Z,17.50
